Time;durP1;ratioP1;P1;durP2;ratioP2;P2;SDS_P1;SDS_P2;PMS_P1;PMS_P2;Temp;Humidity;BMP_temperature;BMP_pressure;BME280_temperature;BME280_humidity;BME280_pressure;Samples;Min_cycle;Max_cycle;Signal;HPM_P1;HPM_P2
2022/01/30 00:01:29;;;;;;;33.63;3.85;;;5.60;99.90;;;;;;5056986;28;20049;-84
2022/01/30 00:03:55;;;;;;;31.52;4.70;;;5.70;99.90;;;;;;5042048;28;20057;-83
2022/01/30 00:06:21;;;;;;;21.25;3.50;;;5.50;99.90;;;;;;5042303;28;20180;-83
2022/01/30 00:08:48;;;;;;;21.92;3.70;;;5.30;99.90;;;;;;4992232;28;20600;-83
2022/01/30 00:11:19;;;;;;;30.73;4.95;;;5.20;99.90;;;;;;5020607;28;20045;-83
2022/01/30 00:13:45;;;;;;;21.98;3.25;;;4.90;99.90;;;;;;5012577;28;20491;-83
2022/01/30 00:16:14;;;;;;;22.35;4.53;;;4.90;99.90;;;;;;5025009;28;20099;-84
2022/01/30 00:24:10;;;;;;;30.83;5.18;;;4.90;99.90;;;;;;5005336;28;20461;-83
2022/01/30 00:26:39;;;;;;;25.75;4.70;;;4.80;99.90;;;;;;5012537;28;20050;-83
2022/01/30 00:29:05;;;;;;;25.60;4.38;;;4.80;99.90;;;;;;4985420;28;20044;-83
2022/01/30 00:31:33;;;;;;;23.92;3.67;;;4.80;99.90;;;;;;5028265;28;20056;-83
2022/01/30 00:33:59;;;;;;;24.83;3.45;;;4.90;99.90;;;;;;4990031;28;20050;-83
2022/01/30 00:36:25;;;;;;;26.02;4.20;;;5.00;99.90;;;;;;5016120;28;20050;-83
2022/01/30 00:38:51;;;;;;;15.95;3.88;;;5.20;99.90;;;;;;5016648;28;20095;-83
2022/01/30 00:41:17;;;;;;;28.35;4.00;;;5.50;99.90;;;;;;4983120;28;20053;-82
2022/01/30 00:43:43;;;;;;;25.02;4.05;;;5.60;99.90;;;;;;5003050;28;20045;-85
2022/01/30 00:46:09;;;;;;;24.23;3.47;;;5.70;99.90;;;;;;5026951;28;20136;-83
2022/01/30 00:48:35;;;;;;;25.85;3.78;;;5.80;99.90;;;;;;5021777;28;20045;-83
2022/01/30 00:51:01;;;;;;;20.92;3.83;;;5.80;99.90;;;;;;4993167;28;20817;-83
2022/01/30 00:53:27;;;;;;;18.55;3.45;;;5.70;99.90;;;;;;5004572;28;20463;-83
2022/01/30 00:55:53;;;;;;;20.80;3.22;;;5.60;99.90;;;;;;5017023;28;20046;-84
2022/01/30 00:58:18;;;;;;;26.00;3.80;;;5.50;99.90;;;;;;5012520;28;20042;-82
2022/01/30 01:00:44;;;;;;;16.77;3.20;;;5.40;99.90;;;;;;5020814;28;20045;-84
2022/01/30 01:03:10;;;;;;;21.10;3.35;;;5.40;99.90;;;;;;5010097;28;20443;-83
2022/01/30 01:05:37;;;;;;;17.42;2.53;;;5.20;99.90;;;;;;5011817;28;20045;-83
2022/01/30 01:08:12;;;;;;;17.27;2.70;;;5.10;99.90;;;;;;5039331;28;20561;-83
2022/01/30 01:10:45;;;;;;;19.23;2.65;;;5.10;99.90;;;;;;5048914;28;20050;-82
2022/01/30 01:23:55;;;;;;;19.52;3.20;;;5.10;99.90;;;;;;5043833;28;20053;-83
2022/01/30 01:26:22;;;;;;;21.80;3.00;;;5.20;99.90;;;;;;5040982;28;20053;-83
2022/01/30 01:28:48;;;;;;;18.65;2.78;;;5.10;99.90;;;;;;5041267;28;20045;-83
2022/01/30 01:31:15;;;;;;;15.88;2.92;;;5.10;99.90;;;;;;5049127;28;20066;-82
2022/01/30 01:36:16;;;;;;;22.65;3.95;;;5.10;99.90;;;;;;5047662;28;20506;-83
2022/01/30 01:38:42;;;;;;;20.05;3.08;;;5.20;99.90;;;;;;5049076;28;20037;-82
2022/01/30 01:41:08;;;;;;;18.88;3.22;;;5.20;99.90;;;;;;5042121;28;20812;-83
2022/01/30 01:43:35;;;;;;;32.63;4.15;;;5.30;99.90;;;;;;5044907;28;20052;-83
2022/01/30 01:46:02;;;;;;;28.65;3.75;;;5.30;99.90;;;;;;5058299;28;20111;-83
2022/01/30 01:48:34;;;;;;;25.80;4.65;;;5.30;99.90;;;;;;5035899;28;20546;-83
2022/01/30 01:51:07;;;;;;;20.88;4.85;;;5.50;99.90;;;;;;5030276;28;20049;-83
2022/01/30 01:53:34;;;;;;;32.33;3.95;;;5.70;99.90;;;;;;5047798;28;20045;-83
2022/01/30 01:56:00;;;;;;;34.28;4.50;;;5.70;99.90;;;;;;5057169;28;20120;-83
2022/01/30 01:58:27;;;;;;;28.75;3.50;;;5.80;99.90;;;;;;5054212;28;20099;-83
2022/01/30 02:00:53;;;;;;;25.13;3.25;;;5.70;99.90;;;;;;5046583;28;20045;-84
2022/01/30 02:03:22;;;;;;;31.73;4.25;;;5.60;99.90;;;;;;5049083;28;20102;-83
2022/01/30 02:05:52;;;;;;;29.52;3.88;;;5.30;99.90;;;;;;5048262;28;20045;-83
2022/01/30 02:11:16;;;;;;;28.25;4.03;;;4.90;99.90;;;;;;5060903;28;20120;-84
2022/01/30 02:24:33;;;;;;;26.80;4.72;;;4.70;99.90;;;;;;5054754;28;20060;-83
2022/01/30 02:26:59;;;;;;;31.70;3.90;;;4.70;99.90;;;;;;5064059;28;20073;-83
2022/01/30 02:29:25;;;;;;;34.30;4.78;;;4.90;99.90;;;;;;5057500;28;20044;-83
2022/01/30 02:31:55;;;;;;;33.88;5.38;;;5.00;99.90;;;;;;5046677;28;20092;-83
2022/01/30 02:34:26;;;;;;;41.22;4.72;;;5.10;99.90;;;;;;5062973;28;20045;-83
2022/01/30 02:36:52;;;;;;;33.40;4.38;;;5.20;99.90;;;;;;5060301;28;20058;-83
2022/01/30 02:39:19;;;;;;;33.83;5.53;;;5.40;99.90;;;;;;5032777;28;20143;-83
2022/01/30 02:41:45;;;;;;;39.75;8.60;;;5.40;99.90;;;;;;5046788;28;20057;-83
2022/01/30 02:44:17;;;;;;;28.70;4.15;;;5.30;99.90;;;;;;5048515;28;20486;-83
2022/01/30 02:46:46;;;;;;;29.85;6.00;;;5.20;99.90;;;;;;5054057;28;20048;-84
2022/01/30 02:51:53;;;;;;;30.75;4.97;;;5.00;99.90;;;;;;5036697;28;20135;-84
2022/01/30 02:54:19;;;;;;;30.23;4.60;;;4.90;99.90;;;;;;5049221;28;20636;-83
2022/01/30 02:56:45;;;;;;;35.17;6.68;;;5.00;99.90;;;;;;5035711;28;20037;-84
2022/01/30 02:59:11;;;;;;;39.60;5.20;;;5.00;99.90;;;;;;5057885;28;20084;-84
2022/01/30 03:01:38;;;;;;;39.65;5.15;;;5.10;99.90;;;;;;5044440;28;20080;-84
2022/01/30 03:04:04;;;;;;;32.40;4.88;;;5.10;99.90;;;;;;5050714;28;20144;-84
2022/01/30 03:06:31;;;;;;;30.13;5.25;;;5.20;99.90;;;;;;5049161;28;20049;-84
2022/01/30 03:08:57;;;;;;;32.70;5.38;;;5.20;99.90;;;;;;5043118;28;20060;-84
2022/01/30 03:11:24;;;;;;;29.73;5.88;;;5.10;99.90;;;;;;5063842;28;20062;-84
2022/01/30 03:13:50;;;;;;;33.33;5.88;;;5.10;99.90;;;;;;5034521;28;20038;-84
2022/01/30 03:16:15;;;;;;;32.83;4.82;;;5.10;99.90;;;;;;5045445;28;20053;-84
2022/01/30 03:18:43;;;;;;;31.63;5.13;;;5.00;99.90;;;;;;5068026;28;20053;-84
2022/01/30 03:21:09;;;;;;;33.50;4.68;;;4.90;99.90;;;;;;5048828;28;20083;-84
2022/01/30 03:23:38;;;;;;;31.33;4.35;;;5.00;99.90;;;;;;5045668;28;20578;-83
2022/01/30 03:26:09;;;;;;;23.55;5.20;;;5.10;99.90;;;;;;5051418;28;20053;-84
2022/01/30 03:28:35;;;;;;;25.73;4.50;;;5.00;99.90;;;;;;5054881;28;20099;-84
2022/01/30 03:31:05;;;;;;;33.30;5.22;;;5.00;99.90;;;;;;5052715;28;20076;-83
2022/01/30 03:33:31;;;;;;;30.05;5.22;;;4.90;99.90;;;;;;5055537;28;20045;-83
2022/01/30 03:35:57;;;;;;;31.75;4.95;;;5.00;99.90;;;;;;5034186;28;20072;-84
2022/01/30 03:38:23;;;;;;;31.48;4.90;;;5.00;99.90;;;;;;5006071;28;20512;-83
2022/01/30 03:40:50;;;;;;;32.65;4.40;;;5.30;99.90;;;;;;5064831;28;20075;-84
2022/01/30 03:43:16;;;;;;;31.00;3.92;;;5.30;99.90;;;;;;5063486;28;20087;-84
2022/01/30 03:45:42;;;;;;;36.30;6.32;;;5.30;99.90;;;;;;5046282;28;20394;-84
2022/01/30 03:48:09;;;;;;;31.88;4.97;;;5.40;99.90;;;;;;5063337;28;20639;-84
2022/01/30 03:50:36;;;;;;;30.25;4.03;;;5.50;99.90;;;;;;5035260;28;20041;-84
2022/01/30 03:53:02;;;;;;;36.33;5.22;;;5.60;99.90;;;;;;5062373;28;20528;-84
2022/01/30 03:55:28;;;;;;;33.83;4.82;;;5.60;99.90;;;;;;5031877;28;20045;-84
2022/01/30 03:57:53;;;;;;;39.55;5.68;;;5.70;99.90;;;;;;5045138;28;20050;-84
2022/01/30 04:00:19;;;;;;;32.45;5.55;;;5.80;99.90;;;;;;5049809;28;20090;-84
2022/01/30 04:02:45;;;;;;;32.38;4.65;;;5.80;99.90;;;;;;5022566;28;20049;-85
2022/01/30 04:05:12;;;;;;;36.00;6.57;;;5.90;99.90;;;;;;5052364;28;20456;-84
2022/01/30 04:07:38;;;;;;;25.33;4.88;;;5.90;99.90;;;;;;5060355;28;20053;-84
2022/01/30 04:10:05;;;;;;;40.05;5.53;;;6.00;99.90;;;;;;5054840;28;20114;-84
2022/01/30 04:12:31;;;;;;;31.70;4.40;;;6.00;99.90;;;;;;5079266;28;20523;-84
2022/01/30 04:14:57;;;;;;;32.58;4.95;;;6.00;99.90;;;;;;5050478;28;20041;-85
2022/01/30 04:17:23;;;;;;;39.60;6.25;;;6.00;99.90;;;;;;5064021;28;20041;-85
2022/01/30 04:19:49;;;;;;;39.58;6.25;;;6.00;99.90;;;;;;5063531;28;20045;-85
2022/01/30 04:22:15;;;;;;;39.03;5.72;;;6.00;99.90;;;;;;5053688;28;20413;-84
2022/01/30 04:24:43;;;;;;;35.03;6.22;;;5.90;99.90;;;;;;5028334;28;20037;-84
2022/01/30 04:27:09;;;;;;;28.10;4.95;;;5.90;99.90;;;;;;5046125;28;20044;-84
2022/01/30 04:29:35;;;;;;;38.45;5.28;;;5.80;99.90;;;;;;5047746;28;20055;-84
2022/01/30 04:32:03;;;;;;;38.65;6.43;;;5.70;99.90;;;;;;5060273;28;20052;-84
2022/01/30 04:34:29;;;;;;;34.80;5.43;;;5.60;99.90;;;;;;5064550;28;20116;-84
2022/01/30 04:37:03;;;;;;;43.65;6.35;;;5.60;99.90;;;;;;5065638;28;20041;-84
2022/01/30 04:40:12;;;;;;;37.58;8.35;;;5.50;99.90;;;;;;5055001;28;20057;-84
2022/01/30 04:53:39;;;;;;;36.53;6.10;;;5.40;99.90;;;;;;5032949;28;20049;-84
2022/01/30 04:59:05;;;;;;;35.65;4.95;;;5.40;99.90;;;;;;5036965;28;20053;-85
2022/01/30 05:09:25;;;;;;;40.92;6.03;;;5.50;99.90;;;;;;5064414;28;20069;-85
2022/01/30 05:11:51;;;;;;;37.78;7.00;;;5.50;99.90;;;;;;5051509;28;20433;-84
2022/01/30 05:14:21;;;;;;;39.92;6.55;;;5.40;99.90;;;;;;5040498;28;20033;-83
2022/01/30 05:16:47;;;;;;;42.50;5.38;;;5.40;99.90;;;;;;5069984;28;20402;-83
2022/01/30 05:19:13;;;;;;;39.00;6.07;;;5.30;99.90;;;;;;5024379;28;20051;-83
2022/01/30 05:21:39;;;;;;;44.25;7.28;;;5.30;99.90;;;;;;5060181;28;20047;-84
2022/01/30 05:24:05;;;;;;;36.95;6.65;;;5.40;99.90;;;;;;5050792;28;20044;-84
2022/01/30 05:26:32;;;;;;;44.53;7.82;;;5.20;99.90;;;;;;5018851;28;20041;-84
2022/01/30 05:28:58;;;;;;;55.05;7.70;;;5.10;99.90;;;;;;5055379;28;20132;-84
2022/01/30 05:31:24;;;;;;;48.28;8.40;;;4.90;99.90;;;;;;5080429;28;20045;-84
2022/01/30 05:33:50;;;;;;;46.55;7.43;;;4.90;99.90;;;;;;5015587;28;20052;-83
2022/01/30 05:36:16;;;;;;;53.47;7.13;;;4.80;99.90;;;;;;5073904;28;20053;-84
2022/01/30 05:38:42;;;;;;;36.88;5.70;;;4.80;99.90;;;;;;4999660;28;20112;-83
2022/01/30 05:41:08;;;;;;;28.80;4.57;;;4.80;99.90;;;;;;5047759;28;20059;-84
2022/01/30 05:43:34;;;;;;;39.10;5.50;;;4.80;99.90;;;;;;5054942;28;20091;-84
2022/01/30 05:46:10;;;;;;;40.10;5.75;;;4.80;99.90;;;;;;5052464;28;20068;-84
2022/01/30 05:48:36;;;;;;;38.00;5.68;;;4.80;99.90;;;;;;5028935;28;20491;-84
2022/01/30 05:51:02;;;;;;;40.33;5.78;;;4.80;99.90;;;;;;5046360;28;20048;-83
2022/01/30 05:53:28;;;;;;;34.95;5.13;;;4.70;99.90;;;;;;5041984;28;20052;-84
2022/01/30 05:55:53;;;;;;;36.58;6.57;;;4.70;99.90;;;;;;5011736;28;20064;-84
2022/01/30 05:58:19;;;;;;;57.58;7.22;;;4.80;99.90;;;;;;5054731;28;20041;-83
2022/01/30 06:00:45;;;;;;;34.67;5.85;;;4.90;99.90;;;;;;5043840;28;20045;-84
2022/01/30 06:03:10;;;;;;;41.58;7.25;;;5.10;99.90;;;;;;5064199;28;20494;-84
2022/01/30 06:05:36;;;;;;;36.38;6.38;;;5.20;99.90;;;;;;5065231;28;20041;-84
2022/01/30 06:08:11;;;;;;;57.30;6.57;;;5.40;99.90;;;;;;5077046;28;20065;-83
2022/01/30 06:10:37;;;;;;;47.22;6.00;;;5.40;99.90;;;;;;5053779;28;20048;-84
2022/01/30 06:13:03;;;;;;;46.65;6.70;;;5.40;99.90;;;;;;5039217;28;20050;-84
2022/01/30 06:15:29;;;;;;;45.47;6.38;;;5.50;99.90;;;;;;5046202;28;20121;-83
2022/01/30 06:17:54;;;;;;;43.65;7.55;;;5.60;99.90;;;;;;5042102;28;20513;-84
2022/01/30 06:20:20;;;;;;;46.95;7.38;;;5.70;99.90;;;;;;5056917;28;20483;-84
2022/01/30 06:22:46;;;;;;;49.30;7.28;;;5.80;99.90;;;;;;4987547;28;20655;-84
2022/01/30 06:25:12;;;;;;;54.05;8.15;;;5.80;99.90;;;;;;5046120;28;20041;-84
2022/01/30 06:27:38;;;;;;;45.88;6.43;;;5.70;99.90;;;;;;5021291;28;20057;-83
2022/01/30 06:30:05;;;;;;;48.08;7.95;;;5.70;99.90;;;;;;5055785;28;20051;-83
2022/01/30 06:32:31;;;;;;;49.80;8.23;;;5.70;99.90;;;;;;5043194;28;20188;-84
2022/01/30 06:34:59;;;;;;;45.92;6.63;;;5.90;99.90;;;;;;5046733;28;20131;-84
2022/01/30 06:37:25;;;;;;;53.67;6.82;;;5.80;99.90;;;;;;5051215;28;20037;-85
2022/01/30 06:39:51;;;;;;;50.38;7.03;;;5.70;99.90;;;;;;5040538;28;20111;-84
2022/01/30 06:42:18;;;;;;;38.40;6.82;;;5.60;99.90;;;;;;5064650;28;20049;-84
2022/01/30 06:44:44;;;;;;;38.40;7.15;;;5.40;99.90;;;;;;5050275;28;20128;-84
2022/01/30 06:47:10;;;;;;;43.92;7.25;;;5.10;99.90;;;;;;5030267;28;20045;-83
2022/01/30 06:49:36;;;;;;;48.15;6.88;;;4.90;99.90;;;;;;5048943;28;20139;-84
2022/01/30 06:52:02;;;;;;;41.40;6.60;;;4.90;99.90;;;;;;5039062;28;20506;-84
2022/01/30 06:54:28;;;;;;;50.35;7.30;;;4.80;99.90;;;;;;5048229;28;20045;-84
2022/01/30 06:56:53;;;;;;;35.53;6.35;;;4.90;99.90;;;;;;5031915;28;20518;-84
2022/01/30 06:59:19;;;;;;;42.83;7.07;;;5.00;99.90;;;;;;5032446;28;20397;-84
2022/01/30 07:01:45;;;;;;;32.45;5.97;;;5.00;99.90;;;;;;5025913;28;20052;-84
2022/01/30 07:04:12;;;;;;;36.40;5.88;;;5.10;99.90;;;;;;5041674;28;20128;-84
2022/01/30 07:06:38;;;;;;;46.20;5.97;;;5.20;99.90;;;;;;5062601;28;20145;-83
2022/01/30 07:09:03;;;;;;;38.97;6.53;;;5.30;99.90;;;;;;5052186;28;20083;-84
2022/01/30 07:11:29;;;;;;;42.63;7.38;;;5.40;99.90;;;;;;5039997;28;20045;-83
2022/01/30 07:13:55;;;;;;;43.55;6.50;;;5.40;99.90;;;;;;5055827;28;20048;-83
2022/01/30 07:16:20;;;;;;;44.85;8.77;;;5.60;99.90;;;;;;5015837;28;20052;-82
2022/01/30 07:18:46;;;;;;;42.95;6.57;;;5.70;99.90;;;;;;4992584;28;20048;-83
2022/01/30 07:21:11;;;;;;;48.83;6.78;;;5.80;99.90;;;;;;5055499;28;20482;-83
2022/01/30 07:23:38;;;;;;;50.30;8.25;;;5.90;99.90;;;;;;5041358;28;20155;-84
2022/01/30 07:26:03;;;;;;;42.78;6.90;;;5.90;99.90;;;;;;5035481;28;20128;-83
2022/01/30 07:28:29;;;;;;;44.35;6.55;;;5.80;99.90;;;;;;5030029;28;20120;-84
2022/01/30 07:30:55;;;;;;;47.22;7.15;;;5.80;99.90;;;;;;5055037;28;20071;-84
2022/01/30 07:33:22;;;;;;;46.03;8.23;;;5.60;99.90;;;;;;5031611;28;20451;-84
2022/01/30 07:35:49;;;;;;;47.33;7.43;;;5.50;99.90;;;;;;5036347;28;20048;-83
2022/01/30 07:38:16;;;;;;;42.28;6.85;;;5.40;99.90;;;;;;5030572;28;20057;-84
2022/01/30 07:40:42;;;;;;;51.35;8.70;;;5.40;99.90;;;;;;5064268;28;20092;-83
2022/01/30 07:43:10;;;;;;;40.70;6.85;;;5.50;99.90;;;;;;5016009;28;20414;-83
2022/01/30 07:45:36;;;;;;;47.08;6.97;;;5.50;99.90;;;;;;5039766;28;20495;-84
2022/01/30 07:48:02;;;;;;;42.85;6.97;;;5.50;99.90;;;;;;5044110;28;20055;-84
2022/01/30 07:50:29;;;;;;;49.15;7.45;;;5.50;99.90;;;;;;5026786;28;20090;-84
2022/01/30 07:52:55;;;;;;;58.50;9.07;;;5.50;99.90;;;;;;5046265;28;20118;-85
2022/01/30 07:55:20;;;;;;;54.47;7.35;;;5.50;99.90;;;;;;5042314;28;20044;-84
2022/01/30 07:57:46;;;;;;;50.25;8.23;;;5.50;99.90;;;;;;5035444;28;20048;-84
2022/01/30 08:00:12;;;;;;;46.97;5.90;;;5.60;99.90;;;;;;5043279;28;20093;-84
2022/01/30 08:02:39;;;;;;;42.05;7.25;;;5.70;99.90;;;;;;5015966;28;20142;-84
2022/01/30 08:05:05;;;;;;;40.55;6.35;;;5.80;99.90;;;;;;5017598;28;20079;-84
2022/01/30 08:07:31;;;;;;;33.70;6.80;;;5.80;99.90;;;;;;5034101;28;20054;-84
2022/01/30 08:09:57;;;;;;;38.00;5.57;;;5.80;99.90;;;;;;5049930;28;20236;-85
2022/01/30 08:12:23;;;;;;;26.90;5.72;;;5.80;99.90;;;;;;5018377;28;20048;-83
2022/01/30 08:14:49;;;;;;;30.70;5.00;;;5.80;99.90;;;;;;5017519;28;20045;-84
2022/01/30 08:17:21;;;;;;;41.55;5.85;;;5.80;99.90;;;;;;5020501;28;20045;-83
2022/01/30 08:19:47;;;;;;;37.67;7.65;;;5.90;99.90;;;;;;5040978;28;20123;-83
2022/01/30 08:22:14;;;;;;;33.67;6.85;;;6.00;99.90;;;;;;5042126;28;20640;-83
2022/01/30 08:24:39;;;;;;;31.77;4.68;;;6.00;99.90;;;;;;5041598;28;20091;-82
2022/01/30 08:27:06;;;;;;;36.67;5.90;;;6.00;99.90;;;;;;5030425;28;20041;-83
2022/01/30 08:29:32;;;;;;;36.70;6.65;;;6.00;99.90;;;;;;5061296;28;20057;-83
2022/01/30 08:31:58;;;;;;;32.42;4.68;;;6.10;99.90;;;;;;5045138;28;20044;-82
2022/01/30 08:34:25;;;;;;;35.97;5.95;;;6.10;99.90;;;;;;5044254;28;20045;-81
2022/01/30 08:36:51;;;;;;;42.65;7.20;;;6.10;99.90;;;;;;5063771;28;20049;-83
2022/01/30 08:39:17;;;;;;;43.78;6.18;;;6.30;99.90;;;;;;5047560;28;20183;-82
2022/01/30 08:41:43;;;;;;;32.33;7.60;;;6.20;99.90;;;;;;5046847;28;20144;-82
2022/01/30 08:44:08;;;;;;;44.42;9.10;;;6.10;99.90;;;;;;5049801;28;20424;-82
2022/01/30 08:46:34;;;;;;;38.72;9.25;;;6.10;99.90;;;;;;5034552;28;20490;-83
2022/01/30 08:49:00;;;;;;;45.78;10.82;;;6.00;99.90;;;;;;5044616;28;20124;-84
2022/01/30 08:51:26;;;;;;;35.33;6.75;;;6.00;99.90;;;;;;5044937;28;20080;-87
2022/01/30 08:53:51;;;;;;;44.63;7.03;;;6.00;99.90;;;;;;5041288;28;20509;-85
2022/01/30 08:56:18;;;;;;;40.65;10.05;;;5.80;99.90;;;;;;5045848;28;20047;-84
2022/01/30 08:58:45;;;;;;;39.20;7.63;;;5.60;99.90;;;;;;5046225;28;20045;-85
2022/01/30 09:01:13;;;;;;;48.08;8.43;;;5.70;99.90;;;;;;5032542;28;20063;-86
2022/01/30 09:03:39;;;;;;;43.08;6.35;;;5.70;99.90;;;;;;5015783;28;20044;-86
2022/01/30 09:06:05;;;;;;;39.72;7.45;;;5.90;99.90;;;;;;5049056;28;20593;-87
2022/01/30 09:08:31;;;;;;;32.55;7.22;;;6.00;99.90;;;;;;5081680;28;20053;-86
2022/01/30 09:10:57;;;;;;;32.03;6.88;;;6.20;99.90;;;;;;5030752;28;20483;-87
2022/01/30 09:13:24;;;;;;;43.00;7.45;;;6.40;99.90;;;;;;5032954;28;20049;-84
2022/01/30 09:15:56;;;;;;;48.22;7.55;;;6.40;99.90;;;;;;5025231;28;20053;-83
2022/01/30 09:18:22;;;;;;;42.40;6.93;;;6.50;99.90;;;;;;5049042;28;20049;-77
2022/01/30 09:20:48;;;;;;;41.15;7.15;;;6.50;99.90;;;;;;5046452;28;20045;-84
2022/01/30 09:23:14;;;;;;;46.90;8.13;;;6.40;99.90;;;;;;5044063;28;20052;-83
2022/01/30 09:25:40;;;;;;;42.20;6.70;;;6.30;99.90;;;;;;5048897;28;20119;-83
2022/01/30 09:28:06;;;;;;;40.15;6.75;;;6.10;99.90;;;;;;5032762;28;20049;-83
2022/01/30 09:30:32;;;;;;;44.78;6.80;;;6.10;99.90;;;;;;5049178;28;20045;-82
2022/01/30 09:32:58;;;;;;;47.45;8.05;;;6.20;99.90;;;;;;5049219;28;20060;-83
2022/01/30 09:35:24;;;;;;;42.45;5.70;;;6.30;99.90;;;;;;5049514;28;20140;-83
2022/01/30 09:37:50;;;;;;;44.83;8.50;;;6.50;99.90;;;;;;5032734;28;20045;-83
2022/01/30 09:40:17;;;;;;;39.50;7.15;;;6.60;99.90;;;;;;5033434;28;20061;-83
2022/01/30 09:42:45;;;;;;;52.55;7.88;;;6.50;99.90;;;;;;5033259;28;20055;-82
2022/01/30 09:45:15;;;;;;;41.63;6.30;;;6.30;99.90;;;;;;5049157;28;20878;-83
2022/01/30 09:47:42;;;;;;;36.45;6.57;;;6.30;99.90;;;;;;5033010;28;20460;-83
2022/01/30 09:50:09;;;;;;;42.55;7.90;;;6.30;99.90;;;;;;5032647;28;20049;-83
2022/01/30 09:52:36;;;;;;;46.88;8.15;;;6.50;99.90;;;;;;5032915;28;20494;-82
2022/01/30 09:55:08;;;;;;;43.17;7.85;;;6.70;99.90;;;;;;5065421;28;20087;-82
2022/01/30 09:57:34;;;;;;;43.47;6.88;;;6.80;99.90;;;;;;5032995;28;20139;-82
2022/01/30 10:00:00;;;;;;;45.88;7.75;;;6.80;99.90;;;;;;4999674;28;20148;-82
2022/01/30 10:02:26;;;;;;;45.00;7.55;;;6.80;99.90;;;;;;5032872;28;20053;-81
2022/01/30 10:04:52;;;;;;;49.75;7.45;;;6.60;99.90;;;;;;5032799;28;20142;-84
2022/01/30 10:07:21;;;;;;;48.20;7.20;;;6.50;99.90;;;;;;5031232;28;20069;-82
2022/01/30 10:09:50;;;;;;;41.60;8.15;;;6.50;99.90;;;;;;4996130;28;20053;-82
2022/01/30 10:12:22;;;;;;;44.03;8.18;;;6.50;99.90;;;;;;5012521;28;20053;-82
2022/01/30 10:15:06;;;;;;;39.28;6.68;;;6.40;99.90;;;;;;4996457;28;20102;-83
2022/01/30 10:17:34;;;;;;;39.08;8.05;;;6.40;99.90;;;;;;4996837;28;20132;-82
2022/01/30 10:20:10;;;;;;;39.13;6.32;;;6.50;99.90;;;;;;4996366;28;20064;-82
2022/01/30 10:22:57;;;;;;;26.30;6.28;;;6.40;99.90;;;;;;5012966;28;20103;-82
2022/01/30 10:25:29;;;;;;;31.05;5.60;;;6.50;99.90;;;;;;4992794;28;20587;-82
2022/01/30 10:28:07;;;;;;;48.50;7.72;;;6.40;99.90;;;;;;4993246;28;20049;-83
2022/01/30 10:30:51;;;;;;;36.80;7.53;;;6.50;99.90;;;;;;4993170;28;20415;-82
2022/01/30 10:33:22;;;;;;;32.78;6.47;;;6.50;99.90;;;;;;4992646;28;20045;-82
2022/01/30 10:35:57;;;;;;;31.33;5.05;;;6.60;99.90;;;;;;4993190;28;20050;-83
2022/01/30 10:38:32;;;;;;;37.95;6.57;;;6.60;99.90;;;;;;4992866;28;20054;-82
2022/01/30 10:41:11;;;;;;;39.50;5.80;;;6.90;99.90;;;;;;4993477;28;20104;-84
2022/01/30 10:44:05;;;;;;;38.50;5.88;;;7.10;99.90;;;;;;4980733;28;20395;-82
2022/01/30 10:46:48;;;;;;;30.38;6.82;;;7.50;99.90;;;;;;4994922;28;20492;-83
2022/01/30 10:49:16;;;;;;;35.92;6.20;;;7.60;99.90;;;;;;4980031;28;20508;-82
2022/01/30 10:51:59;;;;;;;42.30;6.10;;;7.70;99.90;;;;;;4980564;28;20073;-82
2022/01/30 10:54:29;;;;;;;36.30;6.85;;;7.70;99.90;;;;;;4999121;28;20042;-82
2022/01/30 10:57:02;;;;;;;33.17;6.22;;;7.60;99.90;;;;;;4999976;28;20140;-82
2022/01/30 10:59:28;;;;;;;40.42;6.45;;;7.60;99.90;;;;;;5016398;28;20056;-82
2022/01/30 11:01:54;;;;;;;38.53;6.63;;;7.60;99.90;;;;;;5000047;28;20495;-82
2022/01/30 11:04:25;;;;;;;40.67;6.15;;;7.50;99.90;;;;;;5015818;28;20294;-82
2022/01/30 11:06:52;;;;;;;44.22;6.07;;;7.50;99.90;;;;;;5016162;28;20048;-82
2022/01/30 11:09:24;;;;;;;39.08;6.65;;;7.40;99.90;;;;;;5047193;28;20495;-82
2022/01/30 11:11:56;;;;;;;44.95;6.18;;;7.20;99.90;;;;;;5020404;28;20510;-82
2022/01/30 11:14:34;;;;;;;33.22;6.63;;;7.20;99.90;;;;;;5051827;28;20053;-82
2022/01/30 11:17:05;;;;;;;43.53;7.40;;;7.10;99.90;;;;;;5035545;28;20049;-82
2022/01/30 11:19:38;;;;;;;47.42;6.13;;;7.00;99.90;;;;;;5036405;28;20041;-82
2022/01/30 11:22:10;;;;;;;48.30;6.82;;;7.00;99.90;;;;;;5035178;28;20045;-83
2022/01/30 11:24:45;;;;;;;34.42;6.80;;;7.00;99.90;;;;;;5052081;28;20052;-81
2022/01/30 11:27:12;;;;;;;44.40;8.18;;;7.00;99.90;;;;;;5035121;28;20056;-82
2022/01/30 11:29:38;;;;;;;36.85;5.63;;;7.00;99.90;;;;;;5035774;28;20501;-82
2022/01/30 11:32:06;;;;;;;37.13;6.60;;;7.10;99.90;;;;;;5051480;28;20053;-83
2022/01/30 11:34:39;;;;;;;36.30;6.15;;;7.10;99.90;;;;;;5035511;28;20057;-82
2022/01/30 11:37:07;;;;;;;42.55;8.77;;;7.40;99.90;;;;;;5034807;28;20399;-83
2022/01/30 11:39:34;;;;;;;30.40;6.40;;;7.50;99.90;;;;;;5035376;28;20135;-82
2022/01/30 11:42:12;;;;;;;35.50;6.70;;;7.70;99.90;;;;;;5051880;28;20102;-82
2022/01/30 11:44:41;;;;;;;29.35;4.88;;;7.90;99.90;;;;;;5034286;28;20064;-81
2022/01/30 11:47:08;;;;;;;39.63;7.10;;;8.00;99.90;;;;;;5047549;28;20461;-82
2022/01/30 11:49:39;;;;;;;32.25;6.18;;;8.00;99.90;;;;;;5031931;28;20057;-82
2022/01/30 11:52:06;;;;;;;36.33;6.40;;;8.00;99.90;;;;;;5047884;28;20140;-82
2022/01/30 11:54:36;;;;;;;34.25;6.30;;;7.90;99.90;;;;;;5034338;28;20051;-82
2022/01/30 11:57:04;;;;;;;38.35;5.75;;;7.70;99.90;;;;;;5035143;28;20092;-82
2022/01/30 11:59:37;;;;;;;27.75;4.70;;;7.40;99.90;;;;;;5034282;28;20143;-82
2022/01/30 12:02:25;;;;;;;40.17;6.30;;;7.30;99.90;;;;;;5035279;28;20131;-82
2022/01/30 12:05:01;;;;;;;33.10;6.65;;;7.20;99.90;;;;;;5051156;28;20091;-82
2022/01/30 12:07:45;;;;;;;38.20;7.55;;;7.20;99.90;;;;;;5050751;28;20266;-82
2022/01/30 12:10:24;;;;;;;36.08;6.60;;;7.20;99.90;;;;;;5050966;28;20479;-82
2022/01/30 12:12:55;;;;;;;31.50;6.30;;;7.30;99.90;;;;;;5034867;28;20041;-82
2022/01/30 12:15:39;;;;;;;34.50;5.72;;;7.30;99.90;;;;;;5034171;28;20044;-81
2022/01/30 12:18:17;;;;;;;35.78;7.00;;;7.40;99.90;;;;;;5051171;28;20048;-82
2022/01/30 12:21:08;;;;;;;36.05;5.68;;;7.60;99.90;;;;;;5051279;28;20068;-82
2022/01/30 12:23:36;;;;;;;34.58;5.07;;;7.80;99.90;;;;;;5051322;28;20059;-82
2022/01/30 12:26:08;;;;;;;42.13;5.60;;;7.90;99.90;;;;;;5050888;28;20057;-82
2022/01/30 12:28:51;;;;;;;29.73;6.18;;;8.00;99.90;;;;;;5051148;28;20049;-81
2022/01/30 12:31:34;;;;;;;32.17;5.82;;;7.90;99.90;;;;;;5050324;28;20087;-82
2022/01/30 12:34:11;;;;;;;32.85;6.72;;;7.70;99.90;;;;;;5034090;28;20094;-82
2022/01/30 12:36:42;;;;;;;35.70;7.47;;;7.50;99.90;;;;;;5034282;28;20053;-81
2022/01/30 12:39:14;;;;;;;42.53;5.68;;;7.40;99.90;;;;;;5034271;28;20045;-81
2022/01/30 12:41:41;;;;;;;30.08;6.15;;;7.50;99.90;;;;;;5050992;28;20045;-82
2022/01/30 12:44:12;;;;;;;43.22;7.28;;;7.40;99.90;;;;;;5050536;28;20131;-82
2022/01/30 12:46:50;;;;;;;39.60;8.52;;;7.40;99.90;;;;;;5034103;28;20059;-82
2022/01/30 12:49:22;;;;;;;39.90;6.25;;;7.30;99.90;;;;;;5033429;28;20102;-82
2022/01/30 12:51:57;;;;;;;47.15;11.05;;;7.40;99.90;;;;;;5033977;28;20053;-82
2022/01/30 12:54:25;;;;;;;46.85;12.80;;;7.40;99.90;;;;;;5049801;28;20076;-82
2022/01/30 12:56:52;;;;;;;35.58;6.47;;;7.40;99.90;;;;;;5050743;28;20065;-82
2022/01/30 12:59:20;;;;;;;43.33;7.25;;;7.40;99.90;;;;;;5050001;28;20087;-82
2022/01/30 13:01:47;;;;;;;37.90;7.15;;;7.50;99.90;;;;;;5033736;28;20090;-82
2022/01/30 13:04:32;;;;;;;46.10;8.02;;;7.70;99.90;;;;;;5033216;28;20501;-84
2022/01/30 13:06:57;;;;;;;42.63;6.63;;;7.80;99.90;;;;;;5050364;28;20075;-82
2022/01/30 13:09:28;;;;;;;32.90;5.88;;;7.80;99.90;;;;;;5032730;28;20053;-82
2022/01/30 13:11:55;;;;;;;33.67;5.35;;;7.80;99.90;;;;;;5050140;28;20057;-82
2022/01/30 13:14:22;;;;;;;40.05;6.75;;;7.90;99.90;;;;;;5049512;28;20063;-81
2022/01/30 13:16:51;;;;;;;28.98;5.63;;;7.70;99.90;;;;;;5050066;28;20045;-81
2022/01/30 13:19:32;;;;;;;40.88;6.28;;;7.50;99.90;;;;;;5033028;28;20053;-82
2022/01/30 13:21:59;;;;;;;41.33;8.43;;;7.20;99.90;;;;;;5050060;28;20045;-82
2022/01/30 13:24:25;;;;;;;36.72;7.40;;;7.00;99.90;;;;;;5032769;28;20059;-81
2022/01/30 13:27:04;;;;;;;41.00;7.82;;;7.00;99.90;;;;;;5033411;28;20049;-82
2022/01/30 13:29:33;;;;;;;42.53;6.05;;;6.80;99.90;;;;;;5032532;28;20139;-81
2022/01/30 13:32:10;;;;;;;40.75;6.30;;;6.80;99.90;;;;;;5033951;28;20053;-82
2022/01/30 13:34:37;;;;;;;32.15;5.53;;;7.00;99.90;;;;;;5034245;28;20110;-82
2022/01/30 13:37:09;;;;;;;31.45;5.43;;;7.30;99.90;;;;;;5033168;28;20061;-82
2022/01/30 13:39:45;;;;;;;33.60;4.45;;;7.60;99.90;;;;;;5032543;28;20056;-81
2022/01/30 13:45:07;;;;;;;26.65;4.47;;;7.80;99.90;;;;;;5049694;28;20503;-82
2022/01/30 13:47:34;;;;;;;25.30;4.63;;;7.70;99.90;;;;;;5018045;28;20049;-81
2022/01/30 13:50:00;;;;;;;26.73;3.90;;;7.60;99.90;;;;;;5049626;28;20056;-82
2022/01/30 13:52:31;;;;;;;26.88;3.97;;;7.20;99.90;;;;;;5049238;28;20394;-82